Date,TemperatureHighF,TemperatureAvgF,TemperatureLowF,DewpointHighF,DewpointAvgF,DewpointLowF,HumidityHigh,HumidityAvg,HumidityLow,PressureMaxIn,PressureMinIn,WindSpeedMaxMPH,WindSpeedAvgMPH,GustSpeedMaxMPH,PrecipitationSumIn
2013-4-1,51.9,37.2,26.9,39.7,29.9,9.4,95,77,39,29.73,29.47,18,5,30,0.43
2013-4-2,30.1,26.2,21.8,18.4,11.4,7.6,69,53,43,29.86,29.72,24,7,33,0.00
2013-4-3,38.3,29.0,22.1,16.6,10.2,6.4,72,47,28,30.12,29.86,19,8,31,0.00
2013-4-4,49.4,36.0,23.9,21.0,14.8,10.6,65,44,25,30.25,29.96,14,5,24,0.00
2013-4-5,51.1,39.0,30.3,26.0,23.0,19.2,74,54,32,29.96,29.66,18,6,22,0.00
2013-4-6,38.0,29.8,21.3,19.4,8.2,3.0,65,42,25,30.30,29.85,24,7,30,0.00
2013-4-7,51.6,38.8,27.7,36.4,19.0,5.0,83,46,32,30.29,29.93,24,7,34,0.00
2013-4-8,58.1,46.9,38.7,37.0,33.0,27.9,90,62,34,30.05,29.91,15,4,20,0.00
2013-4-9,59.0,47.6,38.6,47.0,39.2,33.9,95,74,51,30.02,29.85,18,3,25,0.22
2013-4-10,53.1,46.2,40.8,46.2,42.3,37.1,95,86,72,29.96,29.83,6,1,10,0.70
2013-4-11,41.8,37.4,32.6,40.4,30.2,18.8,95,76,51,30.12,29.83,14,4,18,0.05
2013-4-12,35.2,29.4,26.8,28.4,25.9,18.8,100,88,53,30.16,29.83,15,5,21,0.00
2013-4-13,48.5,36.4,29.1,38.9,31.6,27.9,96,84,54,29.92,29.78,10,1,17,0.55
2013-4-14,44.1,38.4,34.4,33.0,29.4,25.2,90,71,51,30.19,29.88,13,4,24,0.00
2013-4-15,55.2,42.6,31.9,33.5,29.8,26.0,79,62,42,30.35,30.19,10,2,17,0.00
2013-4-16,61.0,47.9,35.6,50.0,39.2,27.8,92,73,53,30.34,30.00,22,8,43,0.03
2013-4-17,57.1,49.4,42.5,49.5,32.8,25.7,93,55,34,30.30,30.01,18,6,24,0.02
2013-4-18,57.6,48.2,38.4,39.1,29.2,23.6,69,48,39,30.39,30.08,17,5,26,0.00
2013-4-19,66.7,58.4,48.0,59.3,53.1,39.1,95,83,69,30.08,29.54,32,10,36,0.16
2013-4-20,57.9,43.5,32.7,54.8,32.4,17.5,93,67,41,30.19,29.57,29,6,29,0.26
2013-4-21,45.9,36.7,28.6,19.0,16.5,13.8,62,45,28,30.65,30.18,14,6,22,0.00
2013-4-22,47.8,38.1,31.7,28.7,21.1,15.1,86,52,33,30.73,30.58,15,5,23,0.00
2013-4-23,36.1,32.6,28.7,34.8,30.4,26.1,95,92,85,30.58,30.15,10,4,17,0.02
2013-4-24,70.8,53.9,36.1,49.2,41.1,33.8,96,68,26,30.15,29.73,17,5,26,0.01
2013-4-25,55.6,48.9,41.5,47.4,30.7,18.8,90,52,30,30.25,29.72,16,6,27,0.00
2013-4-26,54.8,46.6,39.5,34.9,28.0,20.8,60,48,38,30.39,30.25,14,2,16,0.00
2013-4-27,63.0,51.2,38.8,36.7,31.2,25.6,73,49,26,30.39,30.24,6,1,11,0.00
2013-4-28,65.7,53.6,40.1,39.6,34.7,31.1,70,50,34,30.28,30.14,11,2,15,0.00
2013-4-29,65.0,54.1,44.5,42.6,35.6,25.9,62,50,36,30.20,30.12,15,3,18,0.00
2013-4-30,66.8,57.1,48.4,35.9,29.0,23.2,46,34,26,30.31,30.19,9,1,14,0.00